createdAt,value
2023-01-29T00:00:20.502Z,96504.97
2023-01-29T00:01:26.176Z,96504.59
2023-01-29T00:02:29.852Z,96506.53
2023-01-29T00:03:33.224Z,96502.72
2023-01-29T00:04:36.134Z,96503.81
2023-01-29T00:05:38.578Z,96503.81
2023-01-29T00:06:41.566Z,96509.22
2023-01-29T00:07:43.740Z,96503.03
2023-01-29T00:08:46.917Z,96502.25
2023-01-29T00:09:48.924Z,96507.28
2023-01-29T00:10:51.875Z,96503.03
2023-01-29T00:11:53.869Z,96510.00
2023-01-29T00:12:56.894Z,96500.00
2023-01-29T00:13:59.139Z,96505.75
2023-01-29T00:15:02.247Z,96505.41
2023-01-29T00:16:04.691Z,96509.22
2023-01-29T00:17:07.791Z,96510.78
2023-01-29T00:18:11.132Z,96512.34
2023-01-29T00:19:14.081Z,96513.50
2023-01-29T00:20:16.761Z,96511.91
2023-01-29T00:21:22.108Z,96516.19
2023-01-29T00:22:24.341Z,96516.19
2023-01-29T00:23:27.629Z,96519.22
2023-01-29T00:24:29.775Z,96518.44
2023-01-29T00:25:32.867Z,96518.44
2023-01-29T00:26:34.798Z,96513.81
2023-01-29T00:27:37.670Z,96515.75
2023-01-29T00:28:39.646Z,96516.53
2023-01-29T00:29:43.594Z,96517.66
2023-01-29T00:30:45.517Z,96516.84
2023-01-29T00:31:48.624Z,96524.94
2023-01-29T00:32:51.326Z,96518.44
2023-01-29T00:33:55.744Z,96524.94
2023-01-29T00:34:57.729Z,96520.69
2023-01-29T00:36:03.915Z,96518.00
2023-01-29T00:37:08.884Z,96516.84
2023-01-29T00:38:12.047Z,96514.16
2023-01-29T00:39:14.012Z,96516.06
2023-01-29T00:40:17.845Z,96515.28
2023-01-29T00:41:40.581Z,96511.47
2023-01-29T00:43:03.386Z,96516.06
2023-01-29T00:44:25.360Z,96516.06
2023-01-29T00:45:28.287Z,96515.75
2023-01-29T00:46:30.307Z,96514.97
2023-01-29T00:47:34.398Z,96510.69
2023-01-29T00:48:36.427Z,96511.47
2023-01-29T00:49:41.287Z,96517.66
2023-01-29T00:50:43.173Z,96519.53
2023-01-29T00:52:06.219Z,96516.84
2023-01-29T00:53:08.153Z,96522.25
2023-01-29T00:54:11.114Z,96521.47
2023-01-29T00:55:13.261Z,96526.84
2023-01-29T00:56:16.271Z,96533.03
2023-01-29T00:57:18.309Z,96526.84
2023-01-29T00:58:22.528Z,96530.31
2023-01-29T00:59:24.640Z,96519.91
2023-01-29T01:00:27.643Z,96526.06
2023-01-29T01:01:48.147Z,96520.69
2023-01-29T01:03:08.348Z,96526.84
2023-01-29T01:04:12.484Z,96521.47
2023-01-29T01:05:20.453Z,96519.91
2023-01-29T01:06:22.426Z,96514.50
2023-01-29T01:07:25.454Z,96518.75
2023-01-29T01:08:45.940Z,96519.91
2023-01-29T01:10:06.881Z,96525.28
2023-01-29T01:11:09.823Z,96515.63
2023-01-29T01:12:11.765Z,96519.09
2023-01-29T01:13:14.768Z,96526.75
2023-01-29T01:14:16.885Z,96528.31
2023-01-29T01:15:20.327Z,96522.94
2023-01-29T01:16:22.468Z,96520.25
2023-01-29T01:17:25.929Z,96527.19
2023-01-29T01:18:30.489Z,96521.00
2023-01-29T01:19:35.130Z,96517.53
2023-01-29T01:20:39.949Z,96517.53
2023-01-29T01:21:45.398Z,96522.94
2023-01-29T01:22:48.401Z,96529.88
2023-01-29T01:23:52.064Z,96533.72
2023-01-29T01:24:55.543Z,96528.31
2023-01-29T01:25:57.673Z,96537.97
2023-01-29T01:27:00.733Z,96529.88
2023-01-29T01:28:02.735Z,96529.88
2023-01-29T01:29:06.214Z,96528.31
2023-01-29T01:30:11.588Z,96526.41
2023-01-29T01:31:15.630Z,96525.19
2023-01-29T01:32:17.751Z,96527.88
2023-01-29T01:33:21.075Z,96530.56
2023-01-29T01:34:23.009Z,96530.56
2023-01-29T01:35:25.947Z,96532.16
2023-01-29T01:36:29.318Z,96525.97
2023-01-29T01:37:32.285Z,96528.66
2023-01-29T01:38:34.263Z,96534.84
2023-01-29T01:39:37.293Z,96532.94
2023-01-29T01:40:45.350Z,96538.31
2023-01-29T01:41:48.424Z,96539.44
2023-01-29T01:42:52.955Z,96535.63
2023-01-29T01:43:57.527Z,96532.94
2023-01-29T01:45:04.572Z,96537.53
2023-01-29T01:46:06.575Z,96530.25
2023-01-29T01:47:09.752Z,96536.41
2023-01-29T01:48:17.150Z,96528.31
2023-01-29T01:49:21.679Z,96522.94
2023-01-29T01:50:29.600Z,96524.84
2023-01-29T01:51:36.724Z,96528.31
2023-01-29T01:52:44.803Z,96528.31
2023-01-29T01:53:55.904Z,96533.72
2023-01-29T01:54:58.977Z,96528.31
2023-01-29T01:56:04.727Z,96539.09
2023-01-29T01:57:15.804Z,96532.94
2023-01-29T01:58:25.081Z,96532.56
2023-01-29T01:59:27.121Z,96526.41
2023-01-29T02:00:30.128Z,96528.78
2023-01-29T02:01:32.429Z,96524.50
2023-01-29T02:02:52.967Z,96523.72
2023-01-29T02:04:18.672Z,96529.09
2023-01-29T02:05:39.527Z,96524.50
2023-01-29T02:07:02.490Z,96528.31
2023-01-29T02:08:23.382Z,96528.31
2023-01-29T02:09:33.910Z,96522.94
2023-01-29T02:10:40.153Z,96516.00
2023-01-29T02:11:43.132Z,96529.88
2023-01-29T02:12:46.320Z,96529.88
2023-01-29T02:13:53.490Z,96532.56
2023-01-29T02:15:00.793Z,96528.31
2023-01-29T02:16:03.895Z,96536.41
2023-01-29T02:17:06.183Z,96538.31
2023-01-29T02:18:10.122Z,96534.84
2023-01-29T02:19:18.831Z,96536.72
2023-01-29T02:20:25.719Z,96537.53
2023-01-29T02:22:08.514Z,96537.53
2023-01-29T02:23:50.499Z,96541.34
2023-01-29T02:25:09.740Z,96534.84
2023-01-29T02:26:53.569Z,96537.53
2023-01-29T02:28:31.938Z,96532.16
2023-01-29T02:29:48.883Z,96525.97
2023-01-29T02:31:00.551Z,96526.75
2023-01-29T02:32:14.434Z,96532.16
2023-01-29T02:33:26.254Z,96519.00
2023-01-29T02:34:56.782Z,96515.19
2023-01-29T02:36:11.794Z,96518.69
2023-01-29T02:37:15.245Z,96521.38
2023-01-29T02:38:25.436Z,96520.56
2023-01-29T02:39:34.129Z,96519.78
2023-01-29T02:40:42.045Z,96522.16
2023-01-29T02:41:51.060Z,96522.50
2023-01-29T02:43:03.065Z,96515.53
2023-01-29T02:44:17.951Z,96512.03
2023-01-29T02:45:28.678Z,96502.06
2023-01-29T02:46:36.397Z,96513.63
2023-01-29T02:47:45.552Z,96502.84
2023-01-29T02:48:56.784Z,96508.56
2023-01-29T02:50:06.704Z,96503.19
2023-01-29T02:51:18.322Z,96496.69
2023-01-29T02:52:25.506Z,96491.63
2023-01-29T02:53:35.244Z,96495.09
2023-01-29T02:54:45.225Z,96497.78
2023-01-29T02:55:52.723Z,96495.09
2023-01-29T02:56:58.732Z,96500.47
2023-01-29T02:58:07.613Z,96495.09
2023-01-29T02:59:14.652Z,96494.31
2023-01-29T03:00:21.148Z,96498.94
2023-01-29T03:01:30.806Z,96500.03
2023-01-29T03:02:39.459Z,96496.56
2023-01-29T03:03:45.754Z,96502.72
2023-01-29T03:04:53.711Z,96504.66
2023-01-29T03:06:02.396Z,96501.94
2023-01-29T03:07:10.576Z,96495.78
2023-01-29T03:08:18.588Z,96498.16
2023-01-29T03:09:26.483Z,96496.56
2023-01-29T03:10:35.237Z,96498.94
2023-01-29T03:11:43.058Z,96494.66
2023-01-29T03:12:52.013Z,96500.84
2023-01-29T03:14:01.094Z,96500.47
2023-01-29T03:15:12.147Z,96505.09
2023-01-29T03:16:22.982Z,96509.72
2023-01-29T03:17:33.639Z,96508.56
2023-01-29T03:18:45.861Z,96506.66
2023-01-29T03:19:49.264Z,96511.25
2023-01-29T03:21:02.240Z,96511.25
2023-01-29T03:22:08.453Z,96503.19
2023-01-29T03:23:16.337Z,96508.56
2023-01-29T03:24:42.100Z,96516.66
2023-01-29T03:26:03.646Z,96510.47
2023-01-29T03:27:29.329Z,96516.66
2023-01-29T03:28:52.223Z,96513.50
2023-01-29T03:30:15.128Z,96520.47
2023-01-29T03:31:49.446Z,96526.66
2023-01-29T03:32:55.917Z,96519.72
2023-01-29T03:34:10.102Z,96515.09
2023-01-29T03:35:20.981Z,96515.09
2023-01-29T03:36:37.813Z,96519.34
2023-01-29T03:37:45.592Z,96515.88
2023-01-29T03:38:47.511Z,96520.47
2023-01-29T03:39:50.688Z,96510.47
2023-01-29T03:40:56.635Z,96509.72
2023-01-29T03:42:06.059Z,96516.66
2023-01-29T03:43:13.352Z,96515.88
2023-01-29T03:44:26.523Z,96506.22
2023-01-29T03:45:37.049Z,96507.00
2023-01-29T03:46:45.775Z,96501.63
2023-01-29T03:47:51.601Z,96513.19
2023-01-29T03:49:08.324Z,96500.84
2023-01-29T03:50:22.081Z,96502.72
2023-01-29T03:51:31.399Z,96500.84
2023-01-29T03:52:43.483Z,96495.44
2023-01-29T03:53:52.638Z,96490.06
2023-01-29T03:55:00.807Z,96487.38
2023-01-29T03:56:12.694Z,96482.75
2023-01-29T03:57:23.282Z,96484.69
2023-01-29T03:58:35.865Z,96488.16
2023-01-29T03:59:43.623Z,96488.94
2023-01-29T04:01:14.901Z,96482.75
2023-01-29T04:02:27.930Z,96488.16
2023-01-29T04:03:35.572Z,96476.59
2023-01-29T04:04:47.267Z,96477.69
2023-01-29T04:06:05.463Z,96470.41
2023-01-29T04:07:13.700Z,96474.22
2023-01-29T04:08:23.348Z,96479.63
2023-01-29T04:09:32.535Z,96475.78
2023-01-29T04:10:39.132Z,96476.22
2023-01-29T04:11:46.454Z,96477.38
2023-01-29T04:12:55.466Z,96481.97
2023-01-29T04:13:59.277Z,96485.44
2023-01-29T04:15:02.182Z,96481.19
2023-01-29T04:16:09.980Z,96476.59
2023-01-29T04:17:37.341Z,96481.97
2023-01-29T04:18:47.845Z,96486.56
2023-01-29T04:19:54.667Z,96483.88
2023-01-29T04:20:56.820Z,96488.16
2023-01-29T04:22:05.057Z,96483.09
2023-01-29T04:23:18.720Z,96483.88
2023-01-29T04:24:24.877Z,96491.94
2023-01-29T04:25:36.059Z,96486.56
2023-01-29T04:26:56.450Z,96490.41
2023-01-29T04:28:06.743Z,96491.94
2023-01-29T04:29:21.616Z,96491.16
2023-01-29T04:30:36.319Z,96491.94
2023-01-29T04:31:47.681Z,96492.31
2023-01-29T04:33:04.075Z,96483.88
2023-01-29T04:34:19.226Z,96489.25
2023-01-29T04:35:32.493Z,96479.63
2023-01-29T04:36:47.505Z,96483.09
2023-01-29T04:38:01.658Z,96485.00
2023-01-29T04:39:12.126Z,96486.56
2023-01-29T04:40:21.206Z,96489.25
2023-01-29T04:41:31.133Z,96485.00
2023-01-29T04:42:40.858Z,96488.47
2023-01-29T04:43:55.729Z,96487.69
2023-01-29T04:45:03.629Z,96483.09
2023-01-29T04:46:15.121Z,96491.94
2023-01-29T04:47:26.288Z,96485.00
2023-01-29T04:48:33.815Z,96490.41
2023-01-29T04:49:44.511Z,96475.78
2023-01-29T04:50:56.735Z,96477.69
2023-01-29T04:52:05.572Z,96481.19
2023-01-29T04:53:13.142Z,96485.00
2023-01-29T04:54:21.694Z,96485.00
2023-01-29T04:55:34.037Z,96478.84
2023-01-29T04:56:43.029Z,96475.34
2023-01-29T04:57:53.697Z,96479.63
2023-01-29T04:59:02.559Z,96474.22
2023-01-29T05:00:12.064Z,96474.22
2023-01-29T05:01:19.393Z,96480.41
2023-01-29T05:02:25.766Z,96479.63
2023-01-29T05:03:29.507Z,96480.72
2023-01-29T05:04:35.186Z,96479.63
2023-01-29T05:05:39.683Z,96482.31
2023-01-29T05:06:47.341Z,96477.69
2023-01-29T05:07:49.791Z,96484.22
2023-01-29T05:08:53.487Z,96484.22
2023-01-29T05:09:56.684Z,96486.13
2023-01-29T05:11:00.957Z,96495.78
2023-01-29T05:12:06.522Z,96489.63
2023-01-29T05:13:15.359Z,96494.19
2023-01-29T05:14:20.041Z,96499.59
2023-01-29T05:15:27.586Z,96492.31
2023-01-29T05:16:41.836Z,96491.50
2023-01-29T05:17:44.921Z,96495.78
2023-01-29T05:18:47.534Z,96496.91
2023-01-29T05:19:50.497Z,96501.19
2023-01-29T05:20:56.430Z,96495.78
2023-01-29T05:22:01.445Z,96493.09
2023-01-29T05:23:03.485Z,96501.19
2023-01-29T05:24:15.406Z,96506.56
2023-01-29T05:25:23.947Z,96508.47
2023-01-29T05:26:45.284Z,96514.66
2023-01-29T05:28:05.168Z,96516.56
2023-01-29T05:29:07.283Z,96518.13
2023-01-29T05:30:11.504Z,96518.44
2023-01-29T05:31:14.551Z,96521.94
2023-01-29T05:32:16.567Z,96526.53
2023-01-29T05:33:21.253Z,96529.22
2023-01-29T05:34:23.851Z,96524.97
2023-01-29T05:35:28.440Z,96524.97
2023-01-29T05:36:30.652Z,96519.59
2023-01-29T05:37:35.043Z,96530.38
2023-01-29T05:38:36.974Z,96523.84
2023-01-29T05:39:39.976Z,96522.28
2023-01-29T05:40:42.726Z,96525.75
2023-01-29T05:41:45.688Z,96527.66
2023-01-29T05:42:47.710Z,96526.91
2023-01-29T05:43:50.645Z,96524.97
2023-01-29T05:44:52.645Z,96527.66
2023-01-29T05:45:56.849Z,96528.81
2023-01-29T05:46:58.780Z,96523.41
2023-01-29T05:48:01.856Z,96530.38
2023-01-29T05:49:04.226Z,96527.66
2023-01-29T05:50:08.292Z,96524.97
2023-01-29T05:51:10.221Z,96530.38
2023-01-29T05:52:13.163Z,96524.97
2023-01-29T05:53:17.514Z,96535.75
2023-01-29T05:54:19.591Z,96534.63
2023-01-29T05:55:22.567Z,96525.75
2023-01-29T05:56:25.366Z,96530.38
2023-01-29T05:57:28.338Z,96526.91
2023-01-29T05:58:30.671Z,96524.97
2023-01-29T05:59:33.547Z,96529.59
2023-01-29T06:00:35.461Z,96529.59
2023-01-29T06:01:38.668Z,96524.19
2023-01-29T06:02:41.586Z,96538.44
2023-01-29T06:03:44.056Z,96531.50
2023-01-29T06:04:46.929Z,96531.50
2023-01-29T06:05:48.843Z,96527.22
2023-01-29T06:06:51.845Z,96531.50
2023-01-29T06:07:53.757Z,96522.63
2023-01-29T06:08:58.274Z,96529.47
2023-01-29T06:10:00.306Z,96528.69
2023-01-29T06:11:03.295Z,96526.31
2023-01-29T06:12:07.884Z,96523.63
2023-01-29T06:13:10.833Z,96526.31
2023-01-29T06:14:12.855Z,96522.53
2023-01-29T06:15:16.391Z,96522.53
2023-01-29T06:16:18.408Z,96515.56
2023-01-29T06:17:21.383Z,96528.69
2023-01-29T06:18:23.582Z,96523.63
2023-01-29T06:19:26.518Z,96518.69
2023-01-29T06:20:28.516Z,96524.09
2023-01-29T06:21:31.372Z,96517.91
2023-01-29T06:22:33.701Z,96518.69
2023-01-29T06:23:36.709Z,96513.31
2023-01-29T06:24:40.080Z,96514.88
2023-01-29T06:25:43.131Z,96520.28
2023-01-29T06:26:45.176Z,96521.84
2023-01-29T06:27:51.648Z,96514.88
2023-01-29T06:28:53.675Z,96521.84
2023-01-29T06:29:56.789Z,96516.44
2023-01-29T06:31:08.337Z,96522.16
2023-01-29T06:32:19.480Z,96524.53
2023-01-29T06:33:21.502Z,96524.53
2023-01-29T06:34:24.422Z,96520.28
2023-01-29T06:35:26.407Z,96527.22
2023-01-29T06:36:29.306Z,96528.38
2023-01-29T06:37:31.239Z,96528.38
2023-01-29T06:38:34.786Z,96529.47
2023-01-29T06:39:36.703Z,96516.78
2023-01-29T06:40:41.133Z,96531.06
2023-01-29T06:41:45.344Z,96524.88
2023-01-29T06:42:47.298Z,96525.66
2023-01-29T06:43:50.161Z,96524.88
2023-01-29T06:44:52.138Z,96526.78
2023-01-29T06:45:56.470Z,96532.63
2023-01-29T06:46:59.467Z,96536.44
2023-01-29T06:48:01.785Z,96534.19
2023-01-29T06:49:04.743Z,96532.63
2023-01-29T06:50:07.079Z,96531.84
2023-01-29T06:51:11.232Z,96536.09
2023-01-29T06:52:13.161Z,96531.06
2023-01-29T06:53:16.180Z,96533.38
2023-01-29T06:54:19.110Z,96535.63
2023-01-29T06:55:21.053Z,96532.16
2023-01-29T06:56:25.910Z,96534.84
2023-01-29T06:57:30.029Z,96531.38
2023-01-29T06:58:32.030Z,96533.31
2023-01-29T06:59:35.454Z,96532.53
2023-01-29T07:00:38.234Z,96533.31
2023-01-29T07:01:42.430Z,96536.00
2023-01-29T07:02:44.462Z,96540.25
2023-01-29T07:03:50.553Z,96545.63
2023-01-29T07:04:52.496Z,96545.63
2023-01-29T07:05:55.389Z,96541.84
2023-01-29T07:06:59.029Z,96541.03
2023-01-29T07:08:01.954Z,96538.69
2023-01-29T07:09:04.735Z,96530.59
2023-01-29T07:10:08.627Z,96526.00
2023-01-29T07:11:10.536Z,96524.09
2023-01-29T07:12:14.831Z,96530.25
2023-01-29T07:13:16.899Z,96529.47
2023-01-29T07:14:19.744Z,96529.91
2023-01-29T07:15:21.806Z,96521.38
2023-01-29T07:16:25.107Z,96521.84
2023-01-29T07:17:27.180Z,96507.91
2023-01-29T07:18:30.929Z,96507.13
2023-01-29T07:19:33.324Z,96507.91
2023-01-29T07:20:36.578Z,96507.91
2023-01-29T07:21:38.468Z,96511.38
2023-01-29T07:22:41.407Z,96513.31
2023-01-29T07:23:44.351Z,96516.34
2023-01-29T07:24:46.304Z,96514.44
2023-01-29T07:25:50.044Z,96510.59
2023-01-29T07:26:51.950Z,96515.56
2023-01-29T07:27:56.214Z,96519.84
2023-01-29T07:28:58.270Z,96516.00
2023-01-29T07:30:01.149Z,96513.31
2023-01-29T07:31:03.105Z,96516.00
2023-01-29T07:32:06.502Z,96514.88
2023-01-29T07:33:10.275Z,96518.69
2023-01-29T07:34:13.198Z,96513.31
2023-01-29T07:35:15.156Z,96504.44
2023-01-29T07:36:18.042Z,96507.13
2023-01-29T07:37:20.063Z,96501.75
2023-01-29T07:38:23.324Z,96494.44
2023-01-29T07:39:25.420Z,96497.13
2023-01-29T07:40:28.351Z,96503.31
2023-01-29T07:41:30.284Z,96504.31
2023-01-29T07:42:35.903Z,96504.31
2023-01-29T07:43:40.239Z,96506.25
2023-01-29T07:44:42.113Z,96504.31
2023-01-29T07:45:45.018Z,96502.44
2023-01-29T07:46:46.928Z,96505.13
2023-01-29T07:47:53.751Z,96503.22
2023-01-29T07:48:55.803Z,96502.88
2023-01-29T07:49:58.694Z,96502.53
2023-01-29T07:51:00.725Z,96510.59
2023-01-29T07:52:03.659Z,96499.84
2023-01-29T07:53:05.802Z,96506.81
2023-01-29T07:54:08.988Z,96503.31
2023-01-29T07:55:10.881Z,96499.50
2023-01-29T07:56:13.938Z,96496.03
2023-01-29T07:57:15.943Z,96497.59
2023-01-29T07:58:18.853Z,96497.91
2023-01-29T07:59:22.231Z,96501.41
2023-01-29T08:00:25.310Z,96500.28
2023-01-29T08:01:28.378Z,96497.13
2023-01-29T08:02:30.309Z,96491.75
2023-01-29T08:03:33.220Z,96495.59
2023-01-29T08:04:35.188Z,96497.91
2023-01-29T08:05:38.265Z,96492.53
2023-01-29T08:06:40.240Z,96490.97
2023-01-29T08:07:43.853Z,96498.72
2023-01-29T08:08:48.961Z,96496.03
2023-01-29T08:09:50.931Z,96498.72
2023-01-29T08:10:53.857Z,96502.53
2023-01-29T08:11:55.854Z,96493.34
2023-01-29T08:13:00.319Z,96500.72
2023-01-29T08:14:02.483Z,96498.81
2023-01-29T08:15:07.514Z,96504.97
2023-01-29T08:16:09.574Z,96498.47
2023-01-29T08:17:13.262Z,96500.41
2023-01-29T08:18:15.561Z,96500.41
2023-01-29T08:19:18.525Z,96500.41
2023-01-29T08:20:21.869Z,96490.41
2023-01-29T08:21:24.839Z,96495.00
2023-01-29T08:22:26.811Z,96501.94
2023-01-29T08:23:29.743Z,96502.72
2023-01-29T08:24:41.813Z,96508.13
2023-01-29T08:25:54.856Z,96498.16
2023-01-29T08:26:57.801Z,96516.19
2023-01-29T08:28:00.676Z,96507.34
2023-01-29T08:29:03.640Z,96513.50
2023-01-29T08:30:09.658Z,96511.94
2023-01-29T08:31:16.057Z,96508.13
2023-01-29T08:32:18.101Z,96518.91
2023-01-29T08:33:29.805Z,96516.19
2023-01-29T08:34:40.054Z,96518.91
2023-01-29T08:35:42.468Z,96511.94
2023-01-29T08:36:45.338Z,96509.25
2023-01-29T08:37:53.059Z,96517.34
2023-01-29T08:38:56.063Z,96515.75
2023-01-29T08:39:58.006Z,96510.38
2023-01-29T08:41:01.009Z,96515.75
2023-01-29T08:42:04.234Z,96522.72
2023-01-29T08:43:09.320Z,96515.41
2023-01-29T08:44:12.764Z,96518.13
2023-01-29T08:45:16.626Z,96529.69
2023-01-29T08:46:19.605Z,96522.72
2023-01-29T08:47:21.681Z,96528.13
2023-01-29T08:48:25.212Z,96532.38
2023-01-29T08:49:27.199Z,96526.97
2023-01-29T08:50:30.836Z,96535.06
2023-01-29T08:51:32.872Z,96532.38
2023-01-29T08:52:35.744Z,96538.56
2023-01-29T08:53:38.643Z,96535.50
2023-01-29T08:54:40.549Z,96540.91
2023-01-29T08:55:43.440Z,96542.81
2023-01-29T08:56:46.366Z,96538.22
2023-01-29T08:57:48.325Z,96543.59
2023-01-29T08:58:51.388Z,96544.72
2023-01-29T08:59:53.349Z,96547.06
2023-01-29T09:00:57.703Z,96553.25
2023-01-29T09:02:00.587Z,96555.16
2023-01-29T09:03:03.887Z,96551.34
2023-01-29T09:04:07.095Z,96555.97
2023-01-29T09:05:10.042Z,96552.47
2023-01-29T09:06:14.998Z,96550.22
2023-01-29T09:07:17.950Z,96560.22
2023-01-29T09:08:19.953Z,96546.75
2023-01-29T09:09:22.886Z,96552.13
2023-01-29T09:10:24.995Z,96554.81
2023-01-29T09:11:28.148Z,96556.75
2023-01-29T09:12:30.073Z,96561.34
2023-01-29T09:13:33.307Z,96562.91
2023-01-29T09:14:36.224Z,96562.91
2023-01-29T09:15:38.164Z,96560.53
2023-01-29T09:16:43.179Z,96572.13
2023-01-29T09:17:45.254Z,96566.75
2023-01-29T09:18:48.208Z,96577.50
2023-01-29T09:19:52.217Z,96578.28
2023-01-29T09:20:55.479Z,96577.50
2023-01-29T09:21:58.373Z,96577.50
2023-01-29T09:23:05.053Z,96575.94
2023-01-29T09:24:08.232Z,96575.94
2023-01-29T09:25:10.861Z,96580.53
2023-01-29T09:26:13.856Z,96577.84
2023-01-29T09:27:15.847Z,96585.16
2023-01-29T09:28:18.827Z,96575.94
2023-01-29T09:29:21.749Z,96580.53
2023-01-29T09:30:23.652Z,96575.94
2023-01-29T09:31:26.705Z,96584.00
2023-01-29T09:33:54.357Z,96582.91
2023-01-29T09:34:56.289Z,96581.78
2023-01-29T09:35:59.387Z,96589.84
2023-01-29T09:37:01.590Z,96584.47
2023-01-29T09:38:04.751Z,96584.47
2023-01-29T09:39:06.696Z,96589.84
2023-01-29T09:40:24.031Z,96584.47
2023-01-29T09:41:41.297Z,96588.28
2023-01-29T09:42:48.642Z,96593.69
2023-01-29T09:43:56.847Z,96597.50
2023-01-29T09:45:04.982Z,96593.69
2023-01-29T09:46:16.882Z,96599.06
2023-01-29T09:47:21.284Z,96599.06
2023-01-29T09:48:31.819Z,96594.47
2023-01-29T09:49:37.846Z,96599.06
2023-01-29T09:50:45.647Z,96607.16
2023-01-29T09:51:54.128Z,96601.41
2023-01-29T09:53:00.528Z,96588.28
2023-01-29T09:54:12.713Z,96595.25
2023-01-29T09:55:21.941Z,96594.47
2023-01-29T09:56:28.812Z,96586.06
2023-01-29T09:57:39.196Z,96594.13
2023-01-29T09:58:43.036Z,96587.59
2023-01-29T09:59:46.053Z,96584.13
2023-01-29T10:00:56.234Z,96584.91
2023-01-29T10:02:11.164Z,96583.78
2023-01-29T10:03:35.873Z,96584.59
2023-01-29T10:05:09.813Z,96581.06
2023-01-29T10:06:26.386Z,96583.78
2023-01-29T10:07:47.331Z,96582.66
2023-01-29T10:09:16.107Z,96592.31
2023-01-29T10:10:39.321Z,96590.41
2023-01-29T10:11:51.328Z,96593.91
2023-01-29T10:13:16.333Z,96593.91
2023-01-29T10:14:23.449Z,96583.13
2023-01-29T10:15:39.918Z,96576.13
2023-01-29T10:17:02.273Z,96583.13
2023-01-29T10:18:27.478Z,96580.41
2023-01-29T10:19:46.691Z,96577.72
2023-01-29T10:20:59.816Z,96580.06
2023-01-29T10:22:41.930Z,96583.13
2023-01-29T10:23:51.388Z,96576.59
2023-01-29T10:24:57.609Z,96584.66
2023-01-29T10:26:01.199Z,96587.72
2023-01-29T10:27:05.949Z,96583.13
2023-01-29T10:28:18.171Z,96581.53
2023-01-29T10:29:22.744Z,96588.84
2023-01-29T10:30:32.820Z,96589.16
2023-01-29T10:31:40.534Z,96573.00
2023-01-29T10:32:42.574Z,96581.06
2023-01-29T10:34:01.510Z,96580.31
2023-01-29T10:35:18.875Z,96579.53
2023-01-29T10:36:26.679Z,96569.88
2023-01-29T10:37:38.560Z,96577.97
2023-01-29T10:38:46.095Z,96576.03
2023-01-29T10:39:48.108Z,96575.28
2023-01-29T10:40:58.121Z,96578.75
2023-01-29T10:42:20.875Z,96574.13
2023-01-29T10:43:32.666Z,96569.53
2023-01-29T10:44:48.688Z,96579.19
2023-01-29T10:46:01.183Z,96573.81
2023-01-29T10:47:23.421Z,96571.88
2023-01-29T10:48:42.183Z,96559.97
2023-01-29T10:50:13.709Z,96566.94
2023-01-29T10:51:28.798Z,96566.94
2023-01-29T10:52:44.809Z,96564.69
2023-01-29T10:53:59.480Z,96566.25
2023-01-29T10:55:15.960Z,96564.69
2023-01-29T10:56:34.799Z,96566.25
2023-01-29T10:57:53.274Z,96566.25
2023-01-29T10:59:00.514Z,96564.00
2023-01-29T11:00:12.906Z,96570.53
2023-01-29T11:01:16.484Z,96564.00
2023-01-29T11:02:21.311Z,96555.91
2023-01-29T11:03:28.240Z,96558.63
2023-01-29T11:04:32.614Z,96559.41
2023-01-29T11:05:44.856Z,96561.31
2023-01-29T11:06:47.909Z,96553.22
2023-01-29T11:08:02.524Z,96560.19
2023-01-29T11:09:10.982Z,96554.00
2023-01-29T11:10:20.420Z,96546.72
2023-01-29T11:11:32.856Z,96556.69
2023-01-29T11:12:38.844Z,96559.41
2023-01-29T11:13:45.333Z,96548.63
2023-01-29T11:14:52.942Z,96551.66
2023-01-29T11:15:56.022Z,96551.31
2023-01-29T11:16:58.025Z,96543.59
2023-01-29T11:18:06.307Z,96547.06
2023-01-29T11:19:09.366Z,96539.75
2023-01-29T11:20:27.706Z,96531.66
2023-01-29T11:21:31.987Z,96545.91
2023-01-29T11:22:34.513Z,96543.22
2023-01-29T11:23:37.506Z,96539.75
2023-01-29T11:24:39.420Z,96541.34
2023-01-29T11:25:53.956Z,96537.06
2023-01-29T11:26:59.963Z,96531.66
2023-01-29T11:28:05.230Z,96530.09
2023-01-29T11:29:32.090Z,96528.53
2023-01-29T11:30:38.742Z,96537.75
2023-01-29T11:31:41.703Z,96533.91
2023-01-29T11:32:44.801Z,96538.53
2023-01-29T11:33:47.265Z,96530.78
2023-01-29T11:35:01.287Z,96533.47
2023-01-29T11:36:22.363Z,96530.78
2023-01-29T11:37:34.594Z,96530.78
2023-01-29T11:38:37.583Z,96531.56
2023-01-29T11:39:43.989Z,96526.53
2023-01-29T11:40:47.671Z,96528.84
2023-01-29T11:41:55.686Z,96522.25
2023-01-29T11:43:13.464Z,96519.53
2023-01-29T11:44:19.038Z,96516.41
2023-01-29T11:45:27.547Z,96514.50
2023-01-29T11:46:30.656Z,96512.94
2023-01-29T11:47:33.719Z,96509.91
2023-01-29T11:48:43.669Z,96500.25
2023-01-29T11:49:49.429Z,96499.91
2023-01-29T11:50:53.200Z,96496.09
2023-01-29T11:51:58.271Z,96496.09
2023-01-29T11:53:03.399Z,96488.00
2023-01-29T11:54:07.029Z,96480.72
2023-01-29T11:55:18.756Z,96482.63
2023-01-29T11:56:24.804Z,96481.16
2023-01-29T11:57:30.892Z,96473.06
2023-01-29T11:58:36.059Z,96473.06
2023-01-29T11:59:44.232Z,96473.50
2023-01-29T12:00:51.314Z,96472.38
2023-01-29T12:01:55.148Z,96463.19
2023-01-29T12:03:05.829Z,96459.34
2023-01-29T12:04:20.328Z,96458.19
2023-01-29T12:05:25.878Z,96451.69
2023-01-29T12:06:33.854Z,96453.25
2023-01-29T12:07:42.869Z,96452.47
2023-01-29T12:08:55.261Z,96447.84
2023-01-29T12:10:00.123Z,96452.13
2023-01-29T12:11:10.537Z,96454.84
2023-01-29T12:12:27.793Z,96456.38
2023-01-29T12:13:30.822Z,96453.69
2023-01-29T12:14:34.360Z,96460.22
2023-01-29T12:15:37.613Z,96456.38
2023-01-29T12:16:47.702Z,96457.16
2023-01-29T12:18:03.882Z,96464.47
2023-01-29T12:19:12.924Z,96461.78
2023-01-29T12:20:20.931Z,96461.44
2023-01-29T12:21:32.206Z,96464.91
2023-01-29T12:22:44.001Z,96470.31
2023-01-29T12:23:56.100Z,96470.31
2023-01-29T12:25:03.890Z,96464.91
2023-01-29T12:26:12.883Z,96469.19
2023-01-29T12:27:22.237Z,96481.88
2023-01-29T12:28:35.800Z,96479.53
2023-01-29T12:29:45.391Z,96483.34
2023-01-29T12:30:55.605Z,96471.44
2023-01-29T12:32:06.680Z,96474.94
2023-01-29T12:33:23.595Z,96477.19
2023-01-29T12:34:32.519Z,96461.44
2023-01-29T12:35:42.336Z,96459.97
2023-01-29T12:36:53.164Z,96458.84
2023-01-29T12:38:02.334Z,96464.22
2023-01-29T12:39:07.011Z,96451.09
2023-01-29T12:40:15.670Z,96450.34
2023-01-29T12:41:30.072Z,96455.72
2023-01-29T12:42:33.259Z,96457.28
2023-01-29T12:43:42.388Z,96454.13
2023-01-29T12:44:49.642Z,96454.13
2023-01-29T12:45:56.635Z,96453.34
2023-01-29T12:47:03.959Z,96445.59
2023-01-29T12:48:08.788Z,96448.31
2023-01-29T12:49:17.667Z,96448.75
2023-01-29T12:50:23.662Z,96440.66
2023-01-29T12:51:31.352Z,96445.28
2023-01-29T12:52:41.038Z,96438.75
2023-01-29T12:53:48.181Z,96437.97
2023-01-29T12:54:57.387Z,96434.94
2023-01-29T12:56:04.033Z,96428.75
2023-01-29T12:57:14.313Z,96428.75
2023-01-29T12:58:21.069Z,96422.56
2023-01-29T12:59:30.248Z,96422.56
2023-01-29T13:00:35.503Z,96421.78
2023-01-29T13:01:43.283Z,96416.41
2023-01-29T13:02:50.892Z,96413.69
2023-01-29T13:03:58.859Z,96411.78
2023-01-29T13:05:08.460Z,96404.84
2023-01-29T13:06:14.768Z,96409.09
2023-01-29T13:07:23.702Z,96404.50
2023-01-29T13:08:31.313Z,96402.94
2023-01-29T13:09:34.589Z,96398.31
2023-01-29T13:10:43.690Z,96397.53